Fv\men Brial — FVDB — position and weather

sailwx.info

Track history (hours):
 
Tides and Currents Weather Stations Pressure Air Temp Water Temp Dewpoint Dewpoint Depression Visibility Wind Speed Wind Dir Waves Ship Positions

Fv\men Brial

Last reported at 2017-Nov-18 11:04 UTC. Time now 2017-Nov-18 15:49 UTC.
Position N 47°29' W 005°18'.

Length 15 m.

Type: Fishing. MMSI: 228251000.

Date/timePositionNaut miles runAvg speedWind from/ knotsBaromVisibWave heightAir tempDewpointWater temp
2017-Nov-18 11:04N 47°29' W 005°18'2 1.9
2017-Nov-18 10:04N 47°28' W 005°15'4 2.4
2017-Nov-18 08:26N 47°26' W 005°10'1 2.8
2017-Nov-18 07:55N 47°27' W 005°08'3 2.1
2017-Nov-18 06:31N 47°28' W 005°12'0 2.1
2017-Nov-18 06:29N 47°28' W 005°12'1 2.4
2017-Nov-18 05:58N 47°28' W 005°14'1 2.5
2017-Nov-18 05:24N 47°28' W 005°16'1 2.4
2017-Nov-18 04:50N 47°28' W 005°18'1 1.8
2017-Nov-18 04:23N 47°28' W 005°18'1 2.4
2017-Nov-18 04:00N 47°28' W 005°17'1 2.3
2017-Nov-18 03:26N 47°27' W 005°15'1 3.1
2017-Nov-18 03:00N 47°27' W 005°13'38 2.5
2017-Nov-17 12:10N 47°44' W 004°23'2 8.9
2017-Nov-17 11:56N 47°45' W 004°21'3 7.7
2017-Nov-17 11:30N 47°47' W 004°17'1 0.0
2017-Nov-16 06:30N 47°47' W 004°18'4 7.4
2017-Nov-16 05:59N 47°45' W 004°22'5 7.6
2017-Nov-16 05:16N 47°41' W 004°29'2 7.5
2017-Nov-16 04:58N 47°39' W 004°31'8 7.4
2017-Nov-16 03:50N 47°33' W 004°39'2 5.3
2017-Nov-16 03:24N 47°31' W 004°41'2 4.7
2017-Nov-16 02:54N 47°30' W 004°44'9 2.5
2017-Nov-15 23:07N 47°26' W 004°56'4 2.7
2017-Nov-15 21:36N 47°24' W 005°02'0 1.8
2017-Nov-15 21:23N 47°24' W 005°01'3 1.2
2017-Nov-15 19:13N 47°23' W 004°57'1 2.2
2017-Nov-15 18:40N 47°24' W 004°59'3 2.0
2017-Nov-15 17:20N 47°24' W 005°03'1 0.8
2017-Nov-15 15:47N 47°24' W 005°01'9 2.1
2017-Nov-15 11:22N 47°29' W 004°49'2 2.6
2017-Nov-15 10:41N 47°28' W 004°48'0 0.0
2017-Nov-15 06:20N 47°28' W 004°48'2 0.6
2017-Nov-15 03:49N 47°29' W 004°47'1 2.2
2017-Nov-15 03:19N 47°29' W 004°49'8 1.1
2017-Nov-14 20:17N 47°25' W 004°59'  
2017-Nov-11 05:07N 47°47' W 004°18'1 7.9
2017-Nov-11 04:59N 47°46' W 004°19'3 7.3
2017-Nov-11 04:30N 47°44' W 004°23'4 6.2
2017-Nov-11 03:56N 47°41' W 004°26'4 6.2
2017-Nov-11 03:14N 47°38' W 004°30'  
Track history (hours):
 
Tides and Currents Weather Stations Pressure Air Temp Water Temp Dewpoint Dewpoint Depression Visibility Wind Speed Wind Dir Waves Ship Positions

Fv\men Brial

Last reported at 2017-Nov-18 11:04 UTC. Time now 2017-Nov-18 15:49 UTC.
Position N 47°29' W 005°18'.

Length 15 m.

Type: Fishing. MMSI: 228251000.

Date/timePositionNaut miles runAvg speedWind from/ knotsBaromVisibWave heightAir tempDewpointWater temp
2017-Nov-18 11:04N 47°29' W 005°18'2 1.9
2017-Nov-18 10:04N 47°28' W 005°15'4 2.4
2017-Nov-18 08:26N 47°26' W 005°10'1 2.8
2017-Nov-18 07:55N 47°27' W 005°08'3 2.1
2017-Nov-18 06:31N 47°28' W 005°12'0 2.1
2017-Nov-18 06:29N 47°28' W 005°12'1 2.4
2017-Nov-18 05:58N 47°28' W 005°14'1 2.5
2017-Nov-18 05:24N 47°28' W 005°16'1 2.4
2017-Nov-18 04:50N 47°28' W 005°18'1 1.8
2017-Nov-18 04:23N 47°28' W 005°18'1 2.4
2017-Nov-18 04:00N 47°28' W 005°17'1 2.3
2017-Nov-18 03:26N 47°27' W 005°15'1 3.1
2017-Nov-18 03:00N 47°27' W 005°13'38 2.5
2017-Nov-17 12:10N 47°44' W 004°23'2 8.9
2017-Nov-17 11:56N 47°45' W 004°21'3 7.7
2017-Nov-17 11:30N 47°47' W 004°17'1 0.0
2017-Nov-16 06:30N 47°47' W 004°18'4 7.4
2017-Nov-16 05:59N 47°45' W 004°22'5 7.6
2017-Nov-16 05:16N 47°41' W 004°29'2 7.5
2017-Nov-16 04:58N 47°39' W 004°31'8 7.4
2017-Nov-16 03:50N 47°33' W 004°39'2 5.3
2017-Nov-16 03:24N 47°31' W 004°41'2 4.7
2017-Nov-16 02:54N 47°30' W 004°44'9 2.5
2017-Nov-15 23:07N 47°26' W 004°56'4 2.7
2017-Nov-15 21:36N 47°24' W 005°02'0 1.8
2017-Nov-15 21:23N 47°24' W 005°01'3 1.2
2017-Nov-15 19:13N 47°23' W 004°57'1 2.2
2017-Nov-15 18:40N 47°24' W 004°59'3 2.0
2017-Nov-15 17:20N 47°24' W 005°03'1 0.8
2017-Nov-15 15:47N 47°24' W 005°01'9 2.1
2017-Nov-15 11:22N 47°29' W 004°49'2 2.6
2017-Nov-15 10:41N 47°28' W 004°48'0 0.0
2017-Nov-15 06:20N 47°28' W 004°48'2 0.6
2017-Nov-15 03:49N 47°29' W 004°47'1 2.2
2017-Nov-15 03:19N 47°29' W 004°49'8 1.1
2017-Nov-14 20:17N 47°25' W 004°59'  
2017-Nov-11 05:07N 47°47' W 004°18'1 7.9
2017-Nov-11 04:59N 47°46' W 004°19'3 7.3
2017-Nov-11 04:30N 47°44' W 004°23'4 6.2
2017-Nov-11 03:56N 47°41' W 004°26'4 6.2
2017-Nov-11 03:14N 47°38' W 004°30'  

Dump ship's entire track history